Time;durP1;ratioP1;P1;durP2;ratioP2;P2;SDS_P1;SDS_P2;PMS_P1;PMS_P2;Temp;Humidity;BMP_temperature;BMP_pressure;BME280_temperature;BME280_humidity;BME280_pressure;Samples;Min_cycle;Max_cycle;Signal;HPM_P1;HPM_P2
2023/02/17 00:00:19;;;;;;;;;15.75;15.00;;;;;14.09;68.07;101999.81;2079528;28;46487;-60
2023/02/17 00:01:22;;;;;;;;;14.00;12.00;;;;;14.09;67.93;102002.47;2080664;28;46774;-59
2023/02/17 00:02:22;;;;;;;;;13.00;12.20;;;;;14.11;68.33;102005.16;2079233;28;46728;-61
2023/02/17 00:03:23;;;;;;;;;14.50;14.25;;;;;14.11;68.42;102006.03;2094499;28;48299;-60
2023/02/17 00:04:26;;;;;;;;;15.60;14.20;;;;;14.12;68.37;101998.91;2090118;28;46738;-59
2023/02/17 00:05:26;;;;;;;;;16.40;15.60;;;;;14.12;68.11;101999.78;2078902;28;46809;-60
2023/02/17 00:06:28;;;;;;;;;14.00;14.00;;;;;14.14;68.11;102002.41;2081011;28;46532;-61
2023/02/17 00:07:33;;;;;;;;;12.00;11.60;;;;;14.15;68.36;102006.84;2073577;28;46583;-61
2023/02/17 00:08:33;;;;;;;;;15.40;14.20;;;;;14.15;68.18;102004.19;2080333;28;46446;-60
2023/02/17 00:09:36;;;;;;;;;12.75;12.75;;;;;14.14;68.24;101997.97;2087819;28;46705;-60
2023/02/17 00:10:36;;;;;;;;;12.60;12.60;;;;;14.15;68.14;102001.50;2081579;28;46727;-61
2023/02/17 00:11:36;;;;;;;;;15.00;13.75;;;;;14.16;67.75;102003.28;2079579;28;46874;-60
2023/02/17 00:12:37;;;;;;;;;12.75;11.25;;;;;14.16;67.75;102002.41;2092682;28;46511;-58
2023/02/17 00:13:37;;;;;;;;;13.75;13.25;;;;;14.14;67.84;101997.97;2099069;28;46372;-60
2023/02/17 00:14:39;;;;;;;;;10.50;10.50;;;;;14.15;67.85;102001.50;2080411;28;46627;-60
2023/02/17 00:15:39;;;;;;;;;12.00;12.00;;;;;14.13;67.95;101998.00;2078957;28;45881;-60
2023/02/17 00:16:40;;;;;;;;;13.50;11.75;;;;;14.12;68.19;101996.22;2076337;28;46449;-59
2023/02/17 00:17:40;;;;;;;;;11.25;11.25;;;;;14.11;68.39;101992.69;2101664;28;46455;-61
2023/02/17 00:18:41;;;;;;;;;16.75;13.00;;;;;14.11;68.04;101989.13;2098855;28;47046;-61
2023/02/17 00:19:41;;;;;;;;;12.00;12.00;;;;;14.11;68.37;101994.47;2080742;28;45459;-58
2023/02/17 00:20:42;;;;;;;;;12.75;12.75;;;;;14.09;67.82;101999.81;2098503;28;46831;-59
2023/02/17 00:21:42;;;;;;;;;11.67;11.67;;;;;14.08;68.02;101991.81;2101928;28;46304;-60
2023/02/17 00:22:42;;;;;;;;;11.67;11.67;;;;;14.08;68.44;101983.81;2087340;28;46097;-59
2023/02/17 00:23:44;;;;;;;;;14.00;13.00;;;;;14.07;68.33;101990.94;2078848;28;46207;-59
2023/02/17 00:24:44;;;;;;;;;13.80;13.80;;;;;14.07;68.46;101993.63;2079691;28;46399;-60
2023/02/17 00:25:44;;;;;;;;;13.75;13.75;;;;;14.06;68.43;101994.53;2077871;28;46922;-58
2023/02/17 00:26:45;;;;;;;;;14.00;13.00;;;;;14.06;68.39;101983.84;2078649;28;46298;-60
2023/02/17 00:27:45;;;;;;;;;14.50;14.50;;;;;14.07;68.04;101987.41;2079702;28;46546;-60
2023/02/17 00:28:46;;;;;;;;;15.00;13.33;;;;;14.07;68.32;101992.72;2079470;28;46689;-57
2023/02/17 00:29:47;;;;;;;;;13.80;12.00;;;;;14.07;68.42;101987.41;2075547;28;46392;-59
2023/02/17 00:30:47;;;;;;;;;16.75;15.25;;;;;14.07;68.38;101984.72;2080020;28;46831;-59
2023/02/17 00:31:48;;;;;;;;;14.00;14.00;;;;;14.07;68.69;101984.72;2078618;28;46332;-60
2023/02/17 00:32:48;;;;;;;;;14.00;13.00;;;;;14.07;68.91;101990.94;2081921;28;46292;-61
2023/02/17 00:33:54;;;;;;;;;12.50;12.50;;;;;14.08;68.73;101991.81;2095490;28;46358;-59
2023/02/17 00:34:57;;;;;;;;;14.00;14.00;;;;;14.06;68.66;101989.19;2091964;28;46864;-59
2023/02/17 00:35:57;;;;;;;;;13.60;12.60;;;;;14.06;68.70;101988.31;2079928;28;46645;-60
2023/02/17 00:36:57;;;;;;;;;13.00;13.00;;;;;14.06;68.86;101989.19;2074190;28;46443;-60
2023/02/17 00:37:58;;;;;;;;;14.25;13.75;;;;;14.04;68.59;101985.66;2079188;28;46206;-61
2023/02/17 00:38:58;;;;;;;;;12.50;12.50;;;;;14.04;68.78;101988.34;2087231;28;45569;-61
2023/02/17 00:39:59;;;;;;;;;13.00;12.50;;;;;14.03;69.18;101988.38;2087489;28;46830;-61
2023/02/17 00:40:59;;;;;;;;;12.50;12.50;;;;;14.03;68.51;101985.69;2079966;28;46471;-61
2023/02/17 00:42:00;;;;;;;;;14.75;13.50;;;;;14.03;68.87;101983.03;2076799;28;46671;-60
2023/02/17 00:43:00;;;;;;;;;12.25;12.00;;;;;14.02;68.87;101991.94;2078745;28;46846;-60
2023/02/17 00:44:00;;;;;;;;;12.75;12.00;;;;;14.02;68.85;101979.47;2079971;28;46840;-62
2023/02/17 00:45:01;;;;;;;;;14.00;13.75;;;;;14.03;69.13;101988.38;2091362;28;46478;-60
2023/02/17 00:46:02;;;;;;;;;14.00;12.67;;;;;14.04;68.94;101983.00;2095910;28;46736;-61
2023/02/17 00:47:04;;;;;;;;;12.80;12.80;;;;;14.03;68.49;101983.91;2078584;28;47146;-60
2023/02/17 00:48:04;;;;;;;;;11.20;11.00;;;;;14.03;68.76;101977.69;2087862;28;46339;-60
2023/02/17 00:49:05;;;;;;;;;16.00;13.25;;;;;14.04;68.95;101990.13;2087665;28;46318;-60
2023/02/17 00:50:06;;;;;;;;;11.00;11.00;;;;;14.03;69.17;101977.69;2079524;28;46892;-59
2023/02/17 00:51:07;;;;;;;;;11.80;11.20;;;;;14.02;68.88;101982.13;2080313;28;46488;-60
2023/02/17 00:52:07;;;;;;;;;12.25;11.50;;;;;14.02;69.25;101981.25;2079918;28;46642;-60
2023/02/17 00:53:07;;;;;;;;;12.00;12.00;;;;;14.02;69.43;101984.81;2080217;28;46637;-61
2023/02/17 00:54:08;;;;;;;;;15.50;14.00;;;;;14.02;69.04;101976.81;2079917;28;47166;-62
2023/02/17 00:55:08;;;;;;;;;14.75;14.75;;;;;14.03;69.34;101967.88;2079855;28;46664;-60
2023/02/17 00:56:09;;;;;;;;;14.00;12.50;;;;;14.02;69.32;101976.81;2079740;28;46436;-61
2023/02/17 00:57:10;;;;;;;;;15.00;14.00;;;;;14.02;69.35;101982.13;2080091;28;46545;-60
2023/02/17 00:58:10;;;;;;;;;9.25;9.25;;;;;14.01;69.04;101988.38;2080229;28;46206;-60
2023/02/17 00:59:11;;;;;;;;;14.00;11.33;;;;;14.02;69.07;101981.25;2075745;28;46444;-61
2023/02/17 01:00:12;;;;;;;;;12.25;12.00;;;;;14.02;69.48;101983.94;2075930;28;46585;-60
2023/02/17 01:01:12;;;;;;;;;14.00;12.20;;;;;14.02;69.50;101978.59;2075468;28;46162;-62
2023/02/17 01:02:13;;;;;;;;;12.50;12.25;;;;;14.02;69.19;101979.47;2080328;28;46391;-59
2023/02/17 01:03:13;;;;;;;;;13.75;13.25;;;;;14.04;68.77;101984.78;2084581;28;46261;-62
2023/02/17 01:04:14;;;;;;;;;13.00;13.00;;;;;14.03;69.18;101983.03;2085958;28;46630;-61
2023/02/17 01:05:14;;;;;;;;;13.75;13.75;;;;;14.02;69.33;101984.81;2079942;28;46379;-62
2023/02/17 01:06:22;;;;;;;;;12.00;11.50;;;;;14.02;69.48;101982.13;2079997;28;46581;-59
2023/02/17 01:07:23;;;;;;;;;13.00;11.00;;;;;14.03;69.74;101986.56;2094531;28;46598;-61
2023/02/17 01:08:24;;;;;;;;;10.50;10.50;;;;;14.02;69.75;101981.25;2095760;28;46578;-58
2023/02/17 01:09:24;;;;;;;;;14.60;14.00;;;;;14.03;69.92;101985.69;2080072;28;47130;-61
2023/02/17 01:10:25;;;;;;;;;15.25;13.25;;;;;14.03;69.79;101980.34;2079664;28;46405;-60
2023/02/17 01:11:29;;;;;;;;;11.75;11.75;;;;;14.02;69.36;101987.47;2095933;28;45484;-62
2023/02/17 01:12:29;;;;;;;;;14.80;13.60;;;;;14.02;69.83;101981.25;2091202;28;47127;-62
2023/02/17 01:13:30;;;;;;;;;14.50;13.00;;;;;14.02;69.49;101981.25;2079962;28;46561;-61
2023/02/17 01:14:30;;;;;;;;;13.00;13.00;;;;;14.02;69.76;101973.25;2074714;28;46327;-60
2023/02/17 01:15:31;;;;;;;;;7.75;7.75;;;;;14.02;69.85;101983.94;2076460;28;47033;-61
2023/02/17 01:16:36;;;;;;;;;12.60;12.40;;;;;14.02;69.86;101979.47;2087942;28;46082;-60
2023/02/17 01:17:36;;;;;;;;;9.80;9.80;;;;;14.01;69.72;101977.72;2082386;28;46745;-60
2023/02/17 01:18:37;;;;;;;;;12.50;11.75;;;;;14.02;69.92;101978.59;2079526;28;46207;-61
2023/02/17 01:19:37;;;;;;;;;11.50;11.50;;;;;14.02;69.76;101979.47;2079920;28;46207;-62
2023/02/17 01:20:39;;;;;;;;;10.75;10.75;;;;;14.02;70.08;101975.94;2080272;28;45979;-61
2023/02/17 01:21:40;;;;;;;;;12.40;11.20;;;;;14.02;69.66;101978.59;2087916;28;46380;-61
2023/02/17 01:22:40;;;;;;;;;11.25;11.25;;;;;14.01;69.96;101966.16;2079171;28;45958;-60
2023/02/17 01:23:40;;;;;;;;;10.00;10.00;;;;;14.01;69.94;101971.50;2079108;28;46504;-60
2023/02/17 01:24:41;;;;;;;;;13.00;10.25;;;;;13.99;69.85;101968.84;2087803;28;46479;-63
2023/02/17 01:25:44;;;;;;;;;13.75;13.25;;;;;14.00;70.29;101967.06;2086120;28;46483;-60
2023/02/17 01:26:45;;;;;;;;;13.20;11.20;;;;;14.00;70.13;101972.41;2079675;28;46723;-61
2023/02/17 01:27:46;;;;;;;;;13.25;12.25;;;;;14.00;70.33;101967.06;2072432;28;46391;-60
2023/02/17 01:28:47;;;;;;;;;13.20;10.20;;;;;14.01;70.22;101971.50;2076955;28;46900;-60
2023/02/17 01:29:48;;;;;;;;;12.40;10.60;;;;;14.01;70.20;101967.03;2072604;28;46862;-61
2023/02/17 01:30:48;;;;;;;;;11.00;11.00;;;;;14.01;70.53;101969.69;2078398;28;46721;-61
2023/02/17 01:31:48;;;;;;;;;12.00;11.50;;;;;14.02;70.15;101970.59;2075567;28;46351;-59
2023/02/17 01:32:49;;;;;;;;;13.25;9.75;;;;;14.02;70.16;101974.13;2078648;28;45637;-59
2023/02/17 01:33:49;;;;;;;;;12.00;12.00;;;;;14.02;70.56;101968.78;2078243;28;46094;-63
2023/02/17 01:34:49;;;;;;;;;12.00;10.50;;;;;14.03;70.69;101970.56;2073866;28;46178;-61
2023/02/17 01:35:49;;;;;;;;;8.50;8.00;;;;;14.03;70.30;101977.69;2071528;28;46686;-61
2023/02/17 01:36:50;;;;;;;;;15.25;14.50;;;;;14.04;70.48;101976.78;2076071;28;46574;-60
2023/02/17 01:37:50;;;;;;;;;12.25;12.25;;;;;14.04;70.39;101974.97;2079417;28;46064;-61
2023/02/17 01:38:51;;;;;;;;;10.00;10.00;;;;;14.04;70.60;101968.78;2079047;28;46815;-60
2023/02/17 01:39:51;;;;;;;;;12.25;12.00;;;;;14.04;70.56;101969.66;2078028;28;46454;-60
2023/02/17 01:40:51;;;;;;;;;11.00;11.00;;;;;14.04;70.75;101971.44;2078828;28;46474;-60
2023/02/17 01:41:52;;;;;;;;;16.50;14.00;;;;;14.04;70.71;101971.44;2079272;28;46744;-60
2023/02/17 01:42:52;;;;;;;;;10.33;9.33;;;;;14.03;70.87;101973.22;2081604;28;46601;-63
2023/02/17 01:44:16;;;;;;;;;13.00;13.00;;;;;14.04;70.92;101972.31;2079493;28;46223;-61
2023/02/17 01:45:17;;;;;;;;;11.00;11.00;;;;;14.04;70.90;101972.31;2075947;28;47056;-60
2023/02/17 01:46:17;;;;;;;;;12.33;10.33;;;;;14.05;70.68;101973.19;2075668;28;46594;-61
2023/02/17 01:47:17;;;;;;;;;12.67;12.67;;;;;14.03;70.56;101969.69;2077629;28;45599;-61
2023/02/17 01:48:23;;;;;;;;;11.00;11.00;;;;;14.04;70.60;101966.09;2076295;28;47159;-60
2023/02/17 01:49:26;;;;;;;;;16.40;15.00;;;;;14.05;70.93;101967.84;2086764;28;46479;-60
2023/02/17 01:50:34;;;;;;;;;12.75;11.50;;;;;14.04;70.58;101960.75;2094745;28;45731;-61
2023/02/17 01:51:37;;;;;;;;;10.75;10.75;;;;;14.04;70.46;101964.31;2088670;28;46470;-61
2023/02/17 01:52:40;;;;;;;;;12.00;12.00;;;;;14.04;70.59;101964.31;2087031;28;46704;-61
2023/02/17 01:53:54;;;;;;;;;10.50;10.50;;;;;14.04;70.57;101958.97;2086352;28;46767;-59
2023/02/17 01:55:01;;;;;;;;;11.25;10.25;;;;;14.03;71.22;101964.34;2073174;28;46713;-60
2023/02/17 01:56:03;;;;;;;;;12.60;12.60;;;;;14.01;70.72;101961.69;2091873;28;46811;-59
2023/02/17 01:57:04;;;;;;;;;12.60;12.60;;;;;14.01;70.79;101968.81;2093096;28;46294;-58
2023/02/17 01:58:07;;;;;;;;;12.75;12.75;;;;;14.00;70.71;101972.41;2078562;28;46293;-61
2023/02/17 01:59:16;;;;;;;;;14.00;13.20;;;;;13.99;71.35;101968.84;2078611;28;46380;-60
2023/02/17 02:00:19;;;;;;;;;12.60;12.20;;;;;13.99;71.34;101967.97;2079537;28;46362;-60
2023/02/17 02:01:20;;;;;;;;;15.00;13.60;;;;;13.99;71.13;101974.19;2071708;28;46834;-61
2023/02/17 02:02:21;;;;;;;;;14.40;14.20;;;;;13.99;71.05;101965.31;2080070;28;46163;-60
2023/02/17 02:03:21;;;;;;;;;14.00;14.00;;;;;14.01;71.11;101971.50;2076488;28;46453;-59
2023/02/17 02:04:24;;;;;;;;;13.00;13.00;;;;;14.01;71.46;101969.69;2079649;28;46087;-60
2023/02/17 02:05:25;;;;;;;;;16.25;14.50;;;;;14.01;71.15;101967.03;2079297;28;46697;-59
2023/02/17 02:06:28;;;;;;;;;14.00;13.00;;;;;14.01;70.94;101967.03;2077697;28;46604;-61
2023/02/17 02:07:35;;;;;;;;;13.80;13.20;;;;;14.02;71.09;101970.59;2078153;28;46914;-61
2023/02/17 02:08:52;;;;;;;;;15.00;13.60;;;;;14.01;71.21;101964.38;2077101;28;45966;-58
2023/02/17 02:09:55;;;;;;;;;12.40;12.00;;;;;14.02;71.22;101962.56;2071486;28;46355;-61
2023/02/17 02:10:56;;;;;;;;;15.60;14.00;;;;;14.01;71.32;101961.69;2074566;28;46330;-60
2023/02/17 02:11:56;;;;;;;;;13.00;13.00;;;;;14.03;71.28;101969.69;2075146;28;46391;-60
2023/02/17 02:12:56;;;;;;;;;14.50;13.75;;;;;14.02;71.07;101966.13;2089615;28;46232;-60
2023/02/17 02:13:58;;;;;;;;;13.50;13.50;;;;;14.02;71.10;101963.47;2093833;28;46303;-60
2023/02/17 02:15:11;;;;;;;;;17.40;16.60;;;;;14.00;71.08;101965.28;2077429;28;46863;-58
2023/02/17 02:16:22;;;;;;;;;13.75;13.50;;;;;14.00;71.41;101970.63;2079550;28;46846;-59
2023/02/17 02:17:33;;;;;;;;;14.80;14.80;;;;;14.00;71.59;101967.94;2075461;28;46498;-60
2023/02/17 02:18:44;;;;;;;;;18.25;17.00;;;;;14.00;70.81;101970.63;2077000;28;46770;-59
2023/02/17 02:19:44;;;;;;;;;15.60;15.40;;;;;13.97;71.42;101965.28;2088425;28;46286;-58
2023/02/17 02:21:14;;;;;;;;;13.25;13.25;;;;;13.99;71.41;101973.31;2090458;28;46975;-59
2023/02/17 02:22:38;;;;;;;;;13.25;12.25;;;;;13.96;71.17;101971.53;2076555;28;46971;-61
2023/02/17 02:23:53;;;;;;;;;14.40;13.60;;;;;13.93;71.58;101971.59;2076186;28;46492;-61
2023/02/17 02:25:11;;;;;;;;;13.80;13.80;;;;;13.91;71.52;101968.06;2080499;28;46540;-61
2023/02/17 02:26:48;;;;;;;;;16.60;15.00;;;;;13.92;71.77;101972.50;2072902;28;46880;-61
2023/02/17 02:28:30;;;;;;;;;17.40;15.00;;;;;13.91;71.96;101970.75;2074539;28;47029;-61
2023/02/17 02:30:08;;;;;;;;;17.40;15.80;;;;;13.91;71.62;101972.53;2078081;28;46454;-61
2023/02/17 02:31:11;;;;;;;;;16.20;14.20;;;;;13.90;72.03;101965.44;2079269;28;46553;-60
2023/02/17 02:32:44;;;;;;;;;15.50;15.00;;;;;13.90;72.19;101969.00;2078864;28;46635;-61
2023/02/17 02:34:00;;;;;;;;;15.00;15.00;;;;;13.88;71.99;101962.78;2076208;28;46762;-59
2023/02/17 02:35:11;;;;;;;;;15.25;14.00;;;;;13.89;72.26;101967.22;2076249;28;46382;-61
2023/02/17 02:36:27;;;;;;;;;20.00;16.60;;;;;13.90;72.10;101960.97;2073233;28;46757;-60
2023/02/17 02:37:42;;;;;;;;;15.80;15.00;;;;;13.90;72.45;101957.44;2079264;28;46702;-61
2023/02/17 02:38:53;;;;;;;;;15.80;14.00;;;;;13.91;72.51;101959.19;2095328;28;46117;-63
2023/02/17 02:39:55;;;;;;;;;18.60;17.00;;;;;13.91;71.85;101953.84;2092749;28;46747;-59
2023/02/17 02:41:01;;;;;;;;;15.20;15.20;;;;;13.91;72.22;101953.84;2078753;28;46605;-60
2023/02/17 02:42:07;;;;;;;;;14.00;13.00;;;;;13.92;72.18;101955.63;2079026;28;47804;-60
2023/02/17 02:43:08;;;;;;;;;19.00;17.60;;;;;13.92;72.31;101955.63;2094171;28;46886;-61
2023/02/17 02:44:11;;;;;;;;;14.00;14.00;;;;;13.94;72.10;101951.13;2087312;28;46680;-61
2023/02/17 02:45:12;;;;;;;;;17.40;16.60;;;;;13.94;72.25;101951.13;2076601;28;46993;-60
2023/02/17 02:46:12;;;;;;;;;15.50;15.00;;;;;13.95;72.16;101951.09;2077807;28;46424;-60
2023/02/17 02:47:47;;;;;;;;;15.75;13.50;;;;;13.94;72.13;101946.66;2077857;28;46636;-61
2023/02/17 02:48:49;;;;;;;;;18.80;16.00;;;;;13.93;72.35;101944.91;2078445;28;46882;-60
2023/02/17 02:49:49;;;;;;;;;11.80;11.20;;;;;13.94;72.55;101946.66;2078859;28;46250;-61
2023/02/17 02:51:13;;;;;;;;;15.25;15.25;;;;;13.94;72.37;101953.81;2073811;28;46246;-61
2023/02/17 02:52:23;;;;;;;;;17.40;14.80;;;;;13.93;72.11;101944.91;2078528;28;46062;-59
2023/02/17 02:54:05;;;;;;;;;17.20;17.20;;;;;13.94;72.28;101954.69;2078781;28;46639;-61
2023/02/17 02:55:24;;;;;;;;;16.20;15.00;;;;;13.93;72.55;101966.25;2078276;28;46437;-61
2023/02/17 02:56:49;;;;;;;;;11.60;11.60;;;;;13.91;72.49;101949.41;2062532;28;46761;-60
2023/02/17 02:58:11;;;;;;;;;16.60;15.20;;;;;13.91;72.65;101953.84;2065551;28;46629;-63
2023/02/17 02:59:33;;;;;;;;;14.40;13.80;;;;;13.89;72.78;101953.00;2077843;28;47325;-61
2023/02/17 03:00:37;;;;;;;;;14.00;14.00;;;;;13.89;72.60;101945.88;2077068;28;45288;-61
2023/02/17 03:02:04;;;;;;;;;15.00;13.80;;;;;13.88;72.73;101946.78;2078298;28;45919;-61
2023/02/17 03:03:14;;;;;;;;;16.40;15.00;;;;;13.89;72.39;101943.22;2077948;28;46318;-61
2023/02/17 03:04:51;;;;;;;;;18.20;17.40;;;;;13.89;72.79;101943.22;2077696;28;46421;-61
2023/02/17 03:06:01;;;;;;;;;20.20;17.20;;;;;13.89;72.60;101953.88;2075126;28;46765;-62
2023/02/17 03:07:20;;;;;;;;;17.00;14.80;;;;;13.90;72.68;101946.75;2071535;28;46589;-59
2023/02/17 03:08:35;;;;;;;;;16.60;16.40;;;;;13.90;72.96;101955.66;2076449;28;46631;-60
2023/02/17 03:09:36;;;;;;;;;13.20;12.20;;;;;13.90;73.01;101949.44;2077909;28;46795;-60
2023/02/17 03:10:45;;;;;;;;;14.60;14.60;;;;;13.90;72.99;101950.31;2077136;28;46855;-60
2023/02/17 03:11:47;;;;;;;;;2.20;2.20;;;;;13.91;72.92;101943.19;2077877;28;46443;-61
2023/02/17 03:12:48;;;;;;;;;16.20;16.20;;;;;13.90;72.42;101939.63;2077428;28;47061;-60
2023/02/17 03:13:48;;;;;;;;;18.00;16.25;;;;;13.90;72.99;101947.63;2077940;28;46368;-60
2023/02/17 03:14:53;;;;;;;;;17.50;15.00;;;;;13.91;72.55;101948.53;2069809;28;46644;-61
2023/02/17 03:15:54;;;;;;;;;16.40;14.60;;;;;13.91;72.93;101946.72;2070202;28;46095;-60
2023/02/17 03:16:54;;;;;;;;;18.25;15.00;;;;;13.91;72.88;101946.72;2074910;28;46380;-60
2023/02/17 03:17:59;;;;;;;;;14.25;14.25;;;;;13.90;72.66;101942.31;2078363;28;46349;-60
2023/02/17 03:19:00;;;;;;;;;16.20;16.20;;;;;13.90;72.84;101941.41;2078200;28;46684;-60
2023/02/17 03:20:02;;;;;;;;;13.00;13.00;;;;;13.90;72.90;101938.75;2078127;28;46591;-60
2023/02/17 03:21:11;;;;;;;;;17.80;16.80;;;;;13.91;72.38;101948.53;2078451;28;45691;-60
2023/02/17 03:22:23;;;;;;;;;14.50;12.75;;;;;13.89;72.95;101942.34;2078073;28;46427;-59
2023/02/17 03:23:23;;;;;;;;;18.80;15.80;;;;;13.88;73.22;101941.44;2078548;28;45885;-60
2023/02/17 03:24:24;;;;;;;;;16.75;15.50;;;;;13.88;72.92;101940.56;2078747;28;46342;-62
2023/02/17 03:25:24;;;;;;;;;15.50;15.50;;;;;13.88;72.82;101945.91;2078376;28;46658;-62
2023/02/17 03:26:24;;;;;;;;;19.50;15.50;;;;;13.87;72.96;101936.13;2076995;28;46271;-62
2023/02/17 03:27:25;;;;;;;;;15.67;13.00;;;;;13.86;73.02;101943.25;2078614;28;46268;-59
2023/02/17 03:28:25;;;;;;;;;14.75;14.75;;;;;13.86;73.33;101940.59;2077066;28;46293;-61
2023/02/17 03:29:26;;;;;;;;;16.25;16.00;;;;;13.88;73.23;101943.25;2078159;28;46733;-61
2023/02/17 03:30:27;;;;;;;;;16.75;15.00;;;;;13.87;73.47;101941.47;2076722;28;46439;-60
2023/02/17 03:31:27;;;;;;;;;11.60;10.60;;;;;13.86;73.29;101945.06;2079426;28;46685;-61
2023/02/17 03:32:27;;;;;;;;;16.25;15.50;;;;;13.86;73.63;101940.59;2080442;28;46625;-61
2023/02/17 03:33:28;;;;;;;;;15.75;14.75;;;;;13.87;73.37;101944.16;2079210;28;46493;-60
2023/02/17 03:34:28;;;;;;;;;13.00;13.00;;;;;13.87;73.63;101941.47;2079015;28;46792;-61
2023/02/17 03:35:29;;;;;;;;;14.00;13.00;;;;;13.87;73.49;101936.13;2079024;28;47249;-61
2023/02/17 03:36:29;;;;;;;;;13.75;12.75;;;;;13.89;73.10;101942.34;2079278;28;47110;-59
2023/02/17 03:37:30;;;;;;;;;17.00;16.50;;;;;13.90;73.06;101941.41;2079515;28;46625;-60
2023/02/17 03:38:30;;;;;;;;;11.75;11.25;;;;;13.89;73.33;101939.66;2079065;28;46907;-60
2023/02/17 03:39:30;;;;;;;;;13.75;13.75;;;;;13.90;73.30;101944.09;2076613;28;46465;-60
2023/02/17 03:40:31;;;;;;;;;12.33;11.33;;;;;13.88;73.62;101938.78;2095459;28;46201;-61
2023/02/17 03:41:31;;;;;;;;;14.50;14.50;;;;;13.89;73.58;101939.66;2087569;28;46349;-60
2023/02/17 03:42:32;;;;;;;;;13.00;13.00;;;;;13.89;73.45;101939.66;2078049;28;46781;-59
2023/02/17 03:43:32;;;;;;;;;15.75;14.75;;;;;13.89;73.72;101939.66;2079261;28;47012;-59
2023/02/17 03:44:33;;;;;;;;;15.75;15.75;;;;;13.90;73.53;101944.09;2077735;28;46000;-60
2023/02/17 03:45:35;;;;;;;;;12.75;12.25;;;;;13.90;73.20;101938.75;2077069;28;46593;-60
2023/02/17 03:46:39;;;;;;;;;14.00;14.00;;;;;13.90;73.26;101933.41;2094332;28;46555;-59
2023/02/17 03:47:39;;;;;;;;;14.80;14.00;;;;;13.90;73.43;101944.09;2092533;28;46374;-60
2023/02/17 03:48:40;;;;;;;;;15.50;13.25;;;;;13.91;73.19;101940.50;2090562;28;46390;-57
2023/02/17 03:49:40;;;;;;;;;13.25;13.25;;;;;13.91;73.28;101945.84;2079895;28;46489;-59
2023/02/17 03:50:40;;;;;;;;;18.33;15.00;;;;;13.91;73.18;101937.84;2078084;28;46390;-59
2023/02/17 03:51:41;;;;;;;;;16.25;13.25;;;;;13.91;73.67;101948.53;2079299;28;46030;-61
2023/02/17 03:52:41;;;;;;;;;14.25;14.00;;;;;13.91;73.22;101944.06;2071963;28;46280;-58
2023/02/17 03:53:42;;;;;;;;;14.00;13.00;;;;;13.91;73.31;101943.19;2075558;28;46101;-60
2023/02/17 03:54:43;;;;;;;;;11.00;11.00;;;;;13.91;73.13;101943.19;2079418;28;46497;-60
2023/02/17 03:55:43;;;;;;;;;11.00;8.00;;;;;13.91;73.31;101943.19;2080274;28;46666;-59
2023/02/17 03:56:43;;;;;;;;;12.00;12.00;;;;;13.90;73.33;101946.75;2078255;28;46569;-59
2023/02/17 03:57:44;;;;;;;;;14.00;11.50;;;;;13.89;73.44;101951.22;2080110;28;46632;-57
2023/02/17 03:58:44;;;;;;;;;14.00;12.67;;;;;13.90;73.15;101954.75;2077495;28;46654;-58
2023/02/17 03:59:45;;;;;;;;;14.67;13.00;;;;;13.89;73.21;101953.00;2076908;28;45959;-60
2023/02/17 04:00:45;;;;;;;;;14.75;13.00;;;;;13.90;73.48;101957.44;2098397;28;45958;-61
2023/02/17 04:01:45;;;;;;;;;15.00;15.00;;;;;13.89;73.21;101955.66;2099817;28;46286;-59
2023/02/17 04:02:46;;;;;;;;;11.50;11.50;;;;;13.89;73.55;101958.34;2072257;28;45090;-59
2023/02/17 04:03:46;;;;;;;;;14.75;13.25;;;;;13.89;73.23;101961.00;2071476;28;46745;-59
2023/02/17 04:04:46;;;;;;;;;14.75;14.25;;;;;13.89;73.30;101958.34;2087781;28;46068;-61
2023/02/17 04:05:47;;;;;;;;;14.00;14.00;;;;;13.88;72.68;101961.91;2080545;28;46823;-59
2023/02/17 04:06:47;;;;;;;;;14.00;13.00;;;;;13.85;73.32;101968.19;2075031;28;46613;-59
2023/02/17 04:07:48;;;;;;;;;14.50;14.50;;;;;13.84;73.06;101961.94;2080130;28;46640;-58
2023/02/17 04:08:48;;;;;;;;;12.00;12.00;;;;;13.81;73.19;101970.00;2079885;28;46076;-59
2023/02/17 04:09:49;;;;;;;;;10.33;10.33;;;;;13.80;73.47;101964.69;2080555;28;46849;-59
2023/02/17 04:10:54;;;;;;;;;11.25;11.25;;;;;13.79;73.69;101969.16;2076841;28;46699;-60
2023/02/17 04:11:54;;;;;;;;;12.60;12.60;;;;;13.79;73.94;101961.13;2091999;28;46629;-60
2023/02/17 04:12:54;;;;;;;;;14.33;12.33;;;;;13.80;73.59;101962.91;2096213;28;46815;-57
2023/02/17 04:13:54;;;;;;;;;14.00;12.00;;;;;13.79;73.77;101966.47;2080086;28;46560;-61
2023/02/17 04:14:55;;;;;;;;;13.00;12.67;;;;;13.80;73.37;101962.03;2082053;28;46429;-60
2023/02/17 04:15:55;;;;;;;;;11.33;11.33;;;;;13.80;73.52;101970.03;2075645;28;46399;-60
2023/02/17 04:16:56;;;;;;;;;14.00;14.00;;;;;13.79;73.65;101968.25;2075711;28;46153;-60
2023/02/17 04:17:56;;;;;;;;;13.67;13.00;;;;;13.79;73.81;101966.47;2089133;28;45774;-60
2023/02/17 04:18:56;;;;;;;;;14.33;14.33;;;;;13.79;73.99;101968.25;2091048;28;46827;-59
2023/02/17 04:19:57;;;;;;;;;13.50;13.25;;;;;13.79;74.31;101970.94;2086167;28;47128;-59
2023/02/17 04:20:57;;;;;;;;;14.75;13.25;;;;;13.80;74.48;101972.69;2088111;28;46575;-59
2023/02/17 04:21:58;;;;;;;;;13.00;11.25;;;;;13.79;74.54;101966.47;2088354;28;46547;-59
2023/02/17 04:22:58;;;;;;;;;13.25;12.50;;;;;13.80;74.62;101972.69;2072862;28;45764;-59
2023/02/17 04:24:00;;;;;;;;;11.00;11.00;;;;;13.81;74.25;101972.66;2087480;28;46548;-60
2023/02/17 04:25:00;;;;;;;;;12.50;12.50;;;;;13.83;74.41;101977.97;2085359;28;46729;-59
2023/02/17 04:26:01;;;;;;;;;13.33;13.33;;;;;13.83;74.84;101978.84;2096297;28;46670;-59
2023/02/17 04:27:03;;;;;;;;;12.60;12.20;;;;;13.84;74.43;101979.75;2090280;28;46861;-60
2023/02/17 04:28:04;;;;;;;;;12.75;11.50;;;;;13.83;74.42;101978.84;2080958;28;46991;-60
2023/02/17 04:29:04;;;;;;;;;13.50;12.00;;;;;13.83;74.11;101978.84;2079816;28;46218;-60
2023/02/17 04:30:05;;;;;;;;;14.67;12.67;;;;;13.83;74.79;101975.31;2081312;28;46732;-59
2023/02/17 04:31:07;;;;;;;;;13.75;13.00;;;;;13.84;74.79;101980.63;2078613;28;46293;-61
2023/02/17 04:32:07;;;;;;;;;13.60;12.00;;;;;13.87;74.27;101984.16;2093310;28;46715;-60
2023/02/17 04:33:07;;;;;;;;;14.00;13.00;;;;;13.86;74.45;101980.63;2092638;28;46281;-60
2023/02/17 04:34:08;;;;;;;;;12.67;12.67;;;;;13.86;74.98;101980.63;2080033;28;45468;-60
2023/02/17 04:35:08;;;;;;;;;11.00;11.00;;;;;13.88;74.84;101991.28;2081116;28;46544;-59
2023/02/17 04:36:10;;;;;;;;;12.00;11.33;;;;;13.89;74.87;101977.91;2080047;28;46821;-61
2023/02/17 04:37:10;;;;;;;;;12.25;11.75;;;;;13.89;74.48;101985.91;2095296;28;46307;-61
2023/02/17 04:38:11;;;;;;;;;13.33;13.33;;;;;13.91;75.01;101981.41;2095977;28;47021;-60
2023/02/17 04:39:11;;;;;;;;;10.00;10.00;;;;;13.90;75.10;101985.00;2071873;28;46346;-59
2023/02/17 04:40:12;;;;;;;;;10.67;10.67;;;;;13.90;74.88;101979.66;2077504;28;46364;-61
2023/02/17 04:41:12;;;;;;;;;13.00;13.00;;;;;13.91;74.77;101983.22;2079835;28;46991;-60
2023/02/17 04:42:13;;;;;;;;;11.67;11.67;;;;;13.90;74.85;101985.00;2071863;28;46295;-60
2023/02/17 04:43:13;;;;;;;;;13.00;13.00;;;;;13.90;74.88;101981.44;2081007;28;46855;-60
2023/02/17 04:44:13;;;;;;;;;8.50;8.50;;;;;13.90;75.43;101981.44;2073334;28;46414;-59
2023/02/17 04:45:14;;;;;;;;;12.67;12.00;;;;;13.89;75.13;101983.25;2079942;28;46208;-59
2023/02/17 04:46:14;;;;;;;;;13.00;13.00;;;;;13.90;75.15;101979.66;2080449;28;46385;-60
2023/02/17 04:47:15;;;;;;;;;13.33;13.33;;;;;13.91;75.43;101977.88;2091874;28;46792;-60
2023/02/17 04:48:15;;;;;;;;;13.25;13.25;;;;;13.91;75.19;101983.22;2090346;28;46454;-59
2023/02/17 04:49:15;;;;;;;;;12.75;11.50;;;;;13.92;75.11;101984.97;2080299;28;46333;-61